Aviation Digital Data Service (ADDS)

Output produced by TAFs form (1950 UTC 14 August 2018)
found at http://www.aviationweather.gov/adds/tafs/
 
KFLO 141853Z 24010G18KT 10SM FEW065 33/18 A2997 RMK AO2 SLP146 T03330183
KFLO 141815Z 1418/1518 23008KT P6SM VCTS SCT030CB BKN050 
     FM150000 22004KT P6SM SCT120 
     FM150500 26002KT 4SM BR SKC 
     FM150900 23002KT 1/4SM FG VV002 
     FM151300 26003KT P6SM SCT250